Time;durP1;ratioP1;P1;durP2;ratioP2;P2;SDS_P1;SDS_P2;PMS_P1;PMS_P2;Temp;Humidity;BMP_temperature;BMP_pressure;BME280_temperature;BME280_humidity;BME280_pressure;Samples;Min_cycle;Max_cycle;Signal;HPM_P1;HPM_P2
2023/12/06 00:00:20;;;;;;;34.53;24.27;;;3.20;99.90;;;;;;4996229;28;20041;-88
2023/12/06 00:02:46;;;;;;;38.28;26.25;;;3.20;99.90;;;;;;4997004;28;20421;-89
2023/12/06 00:05:11;;;;;;;37.38;25.48;;;3.20;99.90;;;;;;4998216;28;20057;-89
2023/12/06 00:07:40;;;;;;;35.78;24.50;;;3.20;99.90;;;;;;4998781;28;20054;-89
2023/12/06 00:10:06;;;;;;;36.70;25.35;;;3.20;99.90;;;;;;5008126;28;20073;-89
2023/12/06 00:12:32;;;;;;;34.97;23.77;;;3.20;99.90;;;;;;5017384;28;20023;-89
2023/12/06 00:14:57;;;;;;;34.88;24.70;;;3.20;99.90;;;;;;5017316;28;20030;-88
2023/12/06 00:17:23;;;;;;;33.35;22.60;;;3.20;99.90;;;;;;5010802;28;20034;-90
2023/12/06 00:19:49;;;;;;;34.03;23.70;;;3.20;99.90;;;;;;5002828;28;20054;-89
2023/12/06 00:22:15;;;;;;;34.60;24.02;;;3.20;99.90;;;;;;4995533;28;20037;-89
2023/12/06 00:24:40;;;;;;;32.30;23.02;;;3.20;99.90;;;;;;4978742;28;20122;-89
2023/12/06 00:27:06;;;;;;;31.30;23.45;;;3.30;99.90;;;;;;4995637;28;20070;-89
2023/12/06 00:29:31;;;;;;;33.33;23.15;;;3.20;99.90;;;;;;4995620;28;20565;-90
2023/12/06 00:31:57;;;;;;;33.67;23.15;;;3.20;99.90;;;;;;4978300;28;20042;-89
2023/12/06 00:34:23;;;;;;;33.63;23.35;;;3.20;99.90;;;;;;4994459;28;20089;-89
2023/12/06 00:36:48;;;;;;;32.00;22.10;;;3.30;99.90;;;;;;4995734;28;20088;-90
2023/12/06 00:39:14;;;;;;;34.47;24.33;;;3.20;99.90;;;;;;4995460;28;20034;-84
2023/12/06 00:41:41;;;;;;;32.75;24.05;;;3.20;99.90;;;;;;4995524;28;20030;-89
2023/12/06 00:44:07;;;;;;;33.45;22.00;;;3.20;99.90;;;;;;4995335;28;20497;-88
2023/12/06 00:46:33;;;;;;;30.73;21.65;;;3.30;99.90;;;;;;4994555;28;20027;-90
2023/12/06 00:48:59;;;;;;;34.58;23.25;;;3.30;99.90;;;;;;4994838;28;20394;-90
2023/12/06 00:51:27;;;;;;;31.33;22.85;;;3.30;99.90;;;;;;4995420;28;20109;-89
2023/12/06 00:53:52;;;;;;;33.50;23.88;;;3.30;99.90;;;;;;4994775;28;20033;-89
2023/12/06 00:56:18;;;;;;;31.08;21.60;;;3.30;99.90;;;;;;4978119;28;20378;-89
2023/12/06 00:58:44;;;;;;;30.25;21.98;;;3.30;99.90;;;;;;4994683;28;20031;-90
2023/12/06 01:01:11;;;;;;;32.22;22.25;;;3.30;99.90;;;;;;4994881;28;20030;-90
2023/12/06 01:03:37;;;;;;;29.60;22.10;;;3.30;99.90;;;;;;4982173;28;20026;-89
2023/12/06 01:06:03;;;;;;;32.78;22.98;;;3.30;99.90;;;;;;4998114;28;20062;-88
2023/12/06 01:08:29;;;;;;;31.13;22.85;;;3.30;99.90;;;;;;4997986;28;20494;-89
2023/12/06 01:10:55;;;;;;;33.22;23.15;;;3.30;99.90;;;;;;4999048;28;20390;-89
2023/12/06 01:13:20;;;;;;;31.17;23.05;;;3.30;99.90;;;;;;4997871;28;20129;-89
2023/12/06 01:15:46;;;;;;;30.55;21.70;;;3.30;99.90;;;;;;4998303;28;20064;-89
2023/12/06 01:18:13;;;;;;;30.17;22.35;;;3.30;99.90;;;;;;4981760;28;20042;-89
2023/12/06 01:20:39;;;;;;;31.40;23.48;;;3.30;99.90;;;;;;4997908;28;20228;-88
2023/12/06 01:23:05;;;;;;;33.17;23.25;;;3.30;99.90;;;;;;4997777;28;20463;-89
2023/12/06 01:25:32;;;;;;;33.92;24.27;;;3.30;99.90;;;;;;4981921;28;20038;-90
2023/12/06 01:27:57;;;;;;;33.92;24.17;;;3.40;99.90;;;;;;5000124;28;20030;-88
2023/12/06 01:30:24;;;;;;;33.13;22.83;;;3.50;99.90;;;;;;4999173;28;20077;-88
2023/12/06 01:32:49;;;;;;;35.17;24.50;;;3.50;99.90;;;;;;5020783;28;20018;-88
2023/12/06 01:35:15;;;;;;;35.95;25.17;;;3.50;99.90;;;;;;5020641;28;20041;-90
2023/12/06 01:37:41;;;;;;;32.63;23.50;;;3.50;99.90;;;;;;5004548;28;20046;-88
2023/12/06 01:40:07;;;;;;;35.70;24.40;;;3.50;99.90;;;;;;4989660;28;20494;-90
2023/12/06 01:42:33;;;;;;;33.10;23.88;;;3.60;99.90;;;;;;4998110;28;20098;-89
2023/12/06 01:44:58;;;;;;;31.92;23.52;;;3.70;99.90;;;;;;4981912;28;20061;-90
2023/12/06 01:47:26;;;;;;;34.78;24.15;;;3.70;99.90;;;;;;4997767;28;20035;-89
2023/12/06 01:49:53;;;;;;;33.95;24.08;;;3.60;99.90;;;;;;4997924;28;20023;-89
2023/12/06 01:52:19;;;;;;;34.20;23.55;;;3.70;99.90;;;;;;4997705;28;20030;-89
2023/12/06 01:54:44;;;;;;;33.15;22.95;;;3.60;99.90;;;;;;4997556;28;20031;-88
2023/12/06 01:57:11;;;;;;;35.33;24.15;;;3.60;99.90;;;;;;4981214;28;20041;-90
2023/12/06 01:59:39;;;;;;;33.38;23.52;;;3.70;99.90;;;;;;4997110;28;20033;-89
2023/12/06 02:02:05;;;;;;;34.15;23.95;;;3.70;99.90;;;;;;4981027;28;20169;-89
2023/12/06 02:04:33;;;;;;;34.45;24.98;;;3.80;99.90;;;;;;4997073;28;20066;-90
2023/12/06 02:06:59;;;;;;;34.92;24.42;;;3.80;99.90;;;;;;4981187;28;20050;-90
2023/12/06 02:09:27;;;;;;;32.88;23.23;;;3.80;99.90;;;;;;4998324;28;20033;-90
2023/12/06 02:11:53;;;;;;;35.92;24.67;;;3.90;99.90;;;;;;4996675;28;20489;-89
2023/12/06 02:14:19;;;;;;;34.55;24.55;;;3.90;99.90;;;;;;4996042;28;20018;-90
2023/12/06 02:16:46;;;;;;;34.90;24.38;;;3.90;99.90;;;;;;4996720;28;20521;-90
2023/12/06 02:19:16;;;;;;;34.63;24.60;;;3.90;99.90;;;;;;4997830;28;20076;-90
2023/12/06 02:21:43;;;;;;;34.22;23.45;;;3.90;99.90;;;;;;4997547;28;20021;-91
2023/12/06 02:24:11;;;;;;;36.83;24.77;;;3.90;99.90;;;;;;4996707;28;20026;-89
2023/12/06 02:26:36;;;;;;;34.78;24.30;;;4.00;99.90;;;;;;4996666;28;20489;-90
2023/12/06 02:29:02;;;;;;;33.67;23.60;;;4.00;99.90;;;;;;4979234;28;20050;-85
2023/12/06 02:31:28;;;;;;;38.67;26.35;;;4.00;99.90;;;;;;4997422;28;20113;-82
2023/12/06 02:33:54;;;;;;;39.42;25.60;;;4.00;99.90;;;;;;4996628;28;20471;-89
2023/12/06 02:36:22;;;;;;;36.58;25.35;;;4.00;99.90;;;;;;4996604;28;20034;-89
2023/12/06 02:38:48;;;;;;;35.70;23.13;;;4.00;99.90;;;;;;4995930;28;20026;-89
2023/12/06 02:41:18;;;;;;;34.88;24.60;;;4.10;99.90;;;;;;4980050;28;20038;-90
2023/12/06 02:43:46;;;;;;;39.67;24.77;;;4.10;99.90;;;;;;4997511;28;20030;-89
2023/12/06 02:46:12;;;;;;;37.03;25.38;;;4.10;99.90;;;;;;4996812;28;20030;-88
2023/12/06 02:48:38;;;;;;;36.15;24.95;;;4.10;99.90;;;;;;4997342;28;20034;-90
2023/12/06 02:51:05;;;;;;;35.33;24.25;;;4.10;99.90;;;;;;5007690;28;20027;-91
2023/12/06 02:53:30;;;;;;;34.80;23.48;;;4.10;99.90;;;;;;5003320;28;20090;-83
2023/12/06 02:55:56;;;;;;;35.60;24.88;;;4.10;99.90;;;;;;5003047;28;20014;-91
2023/12/06 02:58:22;;;;;;;37.47;25.95;;;4.10;99.90;;;;;;5015170;28;20031;-90
2023/12/06 03:00:47;;;;;;;36.03;24.10;;;4.10;99.90;;;;;;4998177;28;20033;-90
2023/12/06 03:03:13;;;;;;;34.95;25.27;;;4.10;99.90;;;;;;4996723;28;20030;-90
2023/12/06 03:05:38;;;;;;;35.30;25.77;;;4.10;99.90;;;;;;4996203;28;20031;-90
2023/12/06 03:08:04;;;;;;;38.35;25.05;;;4.10;99.90;;;;;;4979526;28;20050;-89
2023/12/06 03:10:30;;;;;;;37.75;26.15;;;4.10;99.90;;;;;;4980109;28;20076;-91
2023/12/06 03:12:56;;;;;;;38.17;26.13;;;4.20;99.90;;;;;;4996146;28;20060;-89
2023/12/06 03:15:21;;;;;;;35.55;23.98;;;4.20;99.90;;;;;;4996537;28;20173;-90
2023/12/06 03:17:47;;;;;;;34.53;24.00;;;4.30;99.90;;;;;;4996951;28;20065;-90
2023/12/06 03:20:12;;;;;;;34.75;23.90;;;4.30;99.90;;;;;;4995979;28;20038;-90
2023/12/06 03:22:38;;;;;;;35.30;25.63;;;4.30;99.90;;;;;;4979180;28;20034;-89
2023/12/06 03:25:05;;;;;;;33.83;23.85;;;4.30;99.90;;;;;;4995878;28;20034;-89
2023/12/06 03:27:31;;;;;;;33.10;23.42;;;4.30;99.90;;;;;;4995743;28;20035;-88
2023/12/06 03:29:56;;;;;;;34.28;23.55;;;4.30;99.90;;;;;;4979588;28;20085;-89
2023/12/06 03:32:23;;;;;;;32.63;23.30;;;4.30;99.90;;;;;;4980231;28;20101;-90
2023/12/06 03:34:48;;;;;;;34.80;23.88;;;4.40;99.90;;;;;;4995821;28;20027;-90
2023/12/06 03:37:14;;;;;;;32.55;23.63;;;4.30;99.90;;;;;;4995680;28;20040;-90
2023/12/06 03:39:40;;;;;;;34.60;23.13;;;4.30;99.90;;;;;;4995773;28;20054;-92
2023/12/06 03:42:05;;;;;;;31.17;22.00;;;4.30;99.90;;;;;;4995702;28;20022;-89
2023/12/06 03:44:31;;;;;;;32.47;23.92;;;4.40;99.90;;;;;;4995651;28;20080;-89
2023/12/06 03:46:56;;;;;;;33.60;22.95;;;4.40;99.90;;;;;;4979294;28;20105;-89
2023/12/06 03:49:23;;;;;;;38.17;24.42;;;4.40;99.90;;;;;;4995127;28;20035;-89
2023/12/06 03:51:48;;;;;;;33.35;23.45;;;4.40;99.90;;;;;;4995202;28;20042;-89
2023/12/06 03:54:14;;;;;;;32.47;22.67;;;4.50;99.90;;;;;;4979019;28;20030;-91
2023/12/06 03:56:40;;;;;;;33.58;23.55;;;4.50;99.90;;;;;;4979151;28;20398;-88
2023/12/06 03:59:06;;;;;;;32.38;22.33;;;4.50;99.90;;;;;;4995016;28;20033;-89
2023/12/06 04:01:31;;;;;;;33.45;24.13;;;4.50;99.90;;;;;;4995211;28;20023;-89
2023/12/06 04:03:57;;;;;;;31.42;21.98;;;4.50;99.90;;;;;;4978860;28;20386;-88
2023/12/06 04:06:23;;;;;;;30.30;22.20;;;4.50;99.90;;;;;;4995029;28;20477;-90
2023/12/06 04:08:48;;;;;;;31.48;22.13;;;4.50;99.90;;;;;;4995823;28;20054;-89
2023/12/06 04:11:14;;;;;;;29.58;21.08;;;4.50;99.90;;;;;;4997289;28;20046;-88
2023/12/06 04:13:40;;;;;;;29.92;21.27;;;4.50;99.90;;;;;;5017518;28;20034;-89
2023/12/06 04:16:06;;;;;;;29.13;20.73;;;4.50;99.90;;;;;;5002091;28;20029;-88
2023/12/06 04:18:32;;;;;;;28.05;19.98;;;4.50;99.90;;;;;;5001883;28;20018;-90
2023/12/06 04:20:57;;;;;;;27.88;21.00;;;4.50;99.90;;;;;;5006786;28;20038;-89
2023/12/06 04:23:23;;;;;;;26.35;20.83;;;4.50;99.90;;;;;;4995224;28;20057;-90
2023/12/06 04:25:49;;;;;;;26.77;19.92;;;4.50;99.90;;;;;;4995227;28;20189;-89
2023/12/06 04:28:14;;;;;;;26.45;19.00;;;4.50;99.90;;;;;;4994743;28;20041;-89
2023/12/06 04:30:40;;;;;;;25.58;20.17;;;4.50;99.90;;;;;;4994429;28;20046;-89
2023/12/06 04:33:06;;;;;;;27.27;19.73;;;4.50;99.90;;;;;;4978117;28;20026;-89
2023/12/06 04:35:31;;;;;;;25.45;18.73;;;4.50;99.90;;;;;;4994860;28;20121;-89
2023/12/06 04:37:57;;;;;;;25.23;18.83;;;4.50;99.90;;;;;;4977949;28;20034;-90
2023/12/06 04:40:22;;;;;;;25.50;19.02;;;4.60;99.90;;;;;;4994587;28;20614;-89
2023/12/06 04:42:48;;;;;;;26.05;19.50;;;4.60;99.90;;;;;;4978301;28;20037;-90
2023/12/06 04:45:14;;;;;;;24.42;18.33;;;4.60;99.90;;;;;;4994533;28;20030;-85
2023/12/06 04:47:39;;;;;;;27.63;19.73;;;4.70;99.90;;;;;;4994411;28;20035;-88
2023/12/06 04:50:06;;;;;;;23.70;18.75;;;4.60;99.90;;;;;;4994275;28;20093;-89
2023/12/06 04:52:32;;;;;;;23.70;17.55;;;4.60;99.90;;;;;;4978454;28;20031;-88
2023/12/06 04:54:58;;;;;;;24.05;18.50;;;4.60;99.90;;;;;;4994374;28;20061;-89
2023/12/06 04:57:23;;;;;;;21.92;17.73;;;4.60;99.90;;;;;;4978091;28;20062;-89
2023/12/06 04:59:49;;;;;;;22.35;17.05;;;4.60;99.90;;;;;;4977685;28;20466;-89
2023/12/06 05:02:14;;;;;;;25.60;19.30;;;4.60;99.90;;;;;;4978022;28;20463;-89
2023/12/06 05:04:40;;;;;;;23.92;18.45;;;4.70;99.90;;;;;;4994858;28;20035;-90
2023/12/06 05:07:06;;;;;;;23.98;18.10;;;4.70;99.90;;;;;;4977591;28;20030;-90
2023/12/06 05:09:31;;;;;;;24.38;18.83;;;4.70;99.90;;;;;;4993937;28;20050;-88
2023/12/06 05:11:57;;;;;;;23.52;18.17;;;4.70;99.90;;;;;;4993795;28;20061;-90
2023/12/06 05:14:23;;;;;;;25.95;18.63;;;4.70;99.90;;;;;;4994361;28;20054;-90
2023/12/06 05:16:48;;;;;;;23.85;18.33;;;4.70;99.90;;;;;;4995156;28;20085;-89
2023/12/06 05:19:14;;;;;;;23.10;17.35;;;4.70;99.90;;;;;;4995292;28;20034;-89
2023/12/06 05:21:39;;;;;;;22.35;17.77;;;4.70;99.90;;;;;;4994554;28;20065;-89
2023/12/06 05:24:05;;;;;;;22.33;17.13;;;4.70;99.90;;;;;;4978026;28;20030;-90
2023/12/06 05:26:31;;;;;;;23.80;18.10;;;4.80;99.90;;;;;;4977994;28;20614;-88
2023/12/06 05:28:58;;;;;;;23.02;17.48;;;4.80;99.90;;;;;;4995097;28;20038;-87
2023/12/06 05:31:24;;;;;;;21.13;16.65;;;4.70;99.90;;;;;;4978908;28;20038;-88
2023/12/06 05:33:50;;;;;;;21.35;16.58;;;4.70;99.90;;;;;;4990911;28;20401;-84
2023/12/06 05:36:16;;;;;;;21.23;16.25;;;4.70;99.90;;;;;;5000662;28;20359;-90
2023/12/06 05:38:41;;;;;;;23.15;16.90;;;4.70;99.90;;;;;;5017230;28;20030;-88
2023/12/06 05:41:07;;;;;;;20.00;16.15;;;4.70;99.90;;;;;;5013193;28;20034;-89
2023/12/06 05:43:32;;;;;;;20.20;15.32;;;4.70;99.90;;;;;;4995817;28;20037;-88
2023/12/06 05:45:58;;;;;;;20.85;16.05;;;4.70;99.90;;;;;;4994802;28;20041;-89
2023/12/06 05:48:24;;;;;;;19.77;15.07;;;4.80;99.90;;;;;;4996413;28;20042;-88
2023/12/06 05:50:49;;;;;;;17.55;14.13;;;4.80;99.90;;;;;;4998529;28;20026;-89
2023/12/06 05:53:15;;;;;;;20.15;14.48;;;4.80;99.90;;;;;;4997232;28;20117;-89
2023/12/06 05:55:41;;;;;;;18.42;14.45;;;4.80;99.90;;;;;;4997911;28;20042;-88
2023/12/06 05:58:06;;;;;;;19.60;14.57;;;4.80;99.90;;;;;;4980666;28;20041;-89
2023/12/06 06:00:32;;;;;;;17.67;14.35;;;4.70;99.90;;;;;;4980665;28;20030;-89
2023/12/06 06:02:59;;;;;;;20.20;15.43;;;4.80;99.90;;;;;;4980210;28;20031;-88
2023/12/06 06:05:25;;;;;;;19.85;14.52;;;4.80;99.90;;;;;;4980810;28;20171;-89
2023/12/06 06:07:50;;;;;;;17.10;14.40;;;4.80;99.90;;;;;;4980852;28;20098;-89
2023/12/06 06:10:16;;;;;;;19.10;14.57;;;4.80;99.90;;;;;;4980405;28;20185;-90
2023/12/06 06:12:42;;;;;;;18.98;14.00;;;4.90;99.90;;;;;;4980584;28;20242;-89
2023/12/06 06:15:08;;;;;;;17.38;14.05;;;4.90;99.90;;;;;;4980590;28;20030;-88
2023/12/06 06:17:34;;;;;;;19.05;14.30;;;4.90;99.90;;;;;;4996696;28;20460;-88
2023/12/06 06:20:00;;;;;;;16.13;13.60;;;4.90;99.90;;;;;;4996752;28;20092;-88
2023/12/06 06:22:26;;;;;;;19.83;14.88;;;4.90;99.90;;;;;;4996709;28;20035;-88
2023/12/06 06:24:52;;;;;;;20.17;15.30;;;5.00;99.90;;;;;;4996969;28;20031;-89
2023/12/06 06:27:18;;;;;;;18.95;14.45;;;5.00;99.90;;;;;;4996530;28;20034;-91
2023/12/06 06:29:44;;;;;;;17.30;13.88;;;5.00;99.90;;;;;;4997722;28;20525;-89
2023/12/06 06:32:10;;;;;;;17.80;14.18;;;5.00;99.90;;;;;;4996219;28;20034;-88
2023/12/06 06:34:36;;;;;;;18.88;14.45;;;5.00;99.90;;;;;;4980527;28;20046;-87
2023/12/06 06:37:02;;;;;;;20.42;15.65;;;5.00;99.90;;;;;;4996297;28;20065;-87
2023/12/06 06:39:28;;;;;;;19.17;14.98;;;5.10;99.90;;;;;;4996534;28;20541;-90
2023/12/06 06:41:54;;;;;;;19.55;15.10;;;5.10;99.90;;;;;;4980248;28;20031;-88
2023/12/06 06:44:20;;;;;;;17.98;14.55;;;5.10;99.90;;;;;;4979932;28;20121;-89
2023/12/06 06:46:46;;;;;;;18.75;14.65;;;5.10;99.90;;;;;;4996111;28;20104;-88
2023/12/06 06:49:11;;;;;;;20.10;13.88;;;5.10;99.90;;;;;;4996162;28;20166;-88
2023/12/06 06:51:37;;;;;;;17.98;14.48;;;5.10;99.90;;;;;;4996273;28;20045;-89
2023/12/06 06:54:04;;;;;;;22.63;15.18;;;5.00;99.90;;;;;;4998376;28;20499;-89
2023/12/06 06:56:30;;;;;;;18.40;14.85;;;5.10;99.90;;;;;;5018724;28;20092;-88
2023/12/06 06:58:56;;;;;;;16.15;13.25;;;5.10;99.90;;;;;;5018726;28;20043;-87
2023/12/06 07:01:22;;;;;;;16.10;13.50;;;5.10;99.90;;;;;;5019033;28;20022;-83
2023/12/06 07:03:48;;;;;;;19.42;15.07;;;5.10;99.90;;;;;;5001389;28;20026;-88
2023/12/06 07:06:14;;;;;;;18.00;14.35;;;5.10;99.90;;;;;;4995281;28;20053;-89
2023/12/06 07:08:40;;;;;;;19.15;13.93;;;5.10;99.90;;;;;;4979205;28;20057;-88
2023/12/06 07:11:07;;;;;;;18.08;14.32;;;5.10;99.90;;;;;;4995643;28;20073;-89
2023/12/06 07:13:34;;;;;;;16.70;14.18;;;5.10;99.90;;;;;;4995669;28;20026;-90
2023/12/06 07:16:00;;;;;;;18.02;14.27;;;5.10;99.90;;;;;;4995892;28;20459;-89
2023/12/06 07:18:27;;;;;;;15.07;13.20;;;5.10;99.90;;;;;;4995205;28;20027;-89
2023/12/06 07:20:52;;;;;;;16.58;13.93;;;5.20;99.90;;;;;;4979411;28;20178;-89
2023/12/06 07:23:18;;;;;;;18.05;13.60;;;5.20;99.90;;;;;;4995261;28;20062;-88
2023/12/06 07:25:47;;;;;;;17.70;13.25;;;5.20;99.90;;;;;;4978942;28;20225;-89
2023/12/06 07:28:13;;;;;;;16.98;13.63;;;5.20;99.90;;;;;;4995057;28;20116;-88
2023/12/06 07:30:40;;;;;;;16.92;13.57;;;5.20;99.90;;;;;;4996066;28;20080;-90
2023/12/06 07:33:07;;;;;;;18.90;14.02;;;5.20;99.90;;;;;;4995001;28;20474;-90
2023/12/06 07:35:33;;;;;;;17.60;13.43;;;5.20;99.90;;;;;;4979098;28;20080;-89
2023/12/06 07:37:59;;;;;;;16.35;12.93;;;5.20;99.90;;;;;;4978506;28;20536;-88
2023/12/06 07:40:25;;;;;;;20.17;14.13;;;5.20;99.90;;;;;;4995628;28;20034;-87
2023/12/06 07:42:51;;;;;;;16.15;13.10;;;5.20;99.90;;;;;;4978998;28;20041;-88
2023/12/06 07:45:16;;;;;;;17.55;13.00;;;5.20;99.90;;;;;;4995883;28;20030;-88
2023/12/06 07:47:42;;;;;;;14.90;12.27;;;5.20;99.90;;;;;;4978717;28;20501;-87
2023/12/06 07:50:09;;;;;;;16.90;13.43;;;5.20;99.90;;;;;;4994669;28;20034;-89
2023/12/06 07:52:36;;;;;;;17.83;12.98;;;5.20;99.90;;;;;;4995584;28;20030;-89
2023/12/06 07:55:06;;;;;;;15.43;12.35;;;5.30;99.90;;;;;;4994783;28;20026;-89
2023/12/06 07:57:33;;;;;;;16.75;13.00;;;5.20;99.90;;;;;;4994589;28;20023;-89
2023/12/06 07:59:59;;;;;;;17.30;12.68;;;5.30;99.90;;;;;;4978608;28;20036;-88
2023/12/06 08:02:27;;;;;;;19.00;13.68;;;5.30;99.90;;;;;;4978317;28;20026;-87
2023/12/06 08:04:53;;;;;;;15.93;12.20;;;5.30;99.90;;;;;;4994832;28;20030;-89
2023/12/06 08:07:19;;;;;;;15.73;12.30;;;5.30;99.90;;;;;;4995619;28;20133;-88
2023/12/06 08:09:44;;;;;;;13.38;11.27;;;5.30;99.90;;;;;;4978207;28;20053;-87
2023/12/06 08:12:10;;;;;;;15.18;12.18;;;5.30;99.90;;;;;;4977789;28;20041;-90
2023/12/06 08:14:39;;;;;;;18.10;12.27;;;5.20;99.90;;;;;;4996704;28;20061;-85
2023/12/06 08:17:05;;;;;;;17.15;11.52;;;5.30;99.90;;;;;;4997730;28;20034;-90
2023/12/06 08:19:31;;;;;;;17.55;12.02;;;5.20;99.90;;;;;;5004424;28;20057;-84
2023/12/06 08:21:57;;;;;;;17.50;11.52;;;5.30;99.90;;;;;;5013465;28;20076;-90
2023/12/06 08:24:22;;;;;;;18.35;12.00;;;5.30;99.90;;;;;;5000976;28;20030;-88
2023/12/06 08:26:48;;;;;;;14.82;11.55;;;5.30;99.90;;;;;;4998966;28;20048;-88
2023/12/06 08:29:14;;;;;;;14.68;11.00;;;5.30;99.90;;;;;;4994732;28;20063;-85
2023/12/06 08:31:39;;;;;;;14.38;11.10;;;5.40;99.90;;;;;;4977833;28;20030;-90
2023/12/06 08:34:05;;;;;;;15.25;10.90;;;5.40;99.90;;;;;;4979441;28;20385;-90
2023/12/06 08:36:31;;;;;;;15.80;11.68;;;5.40;99.90;;;;;;4994196;28;20553;-90
2023/12/06 08:38:56;;;;;;;16.73;11.93;;;5.30;99.90;;;;;;4978087;28;20493;-88
2023/12/06 08:41:22;;;;;;;15.90;11.35;;;5.40;99.90;;;;;;4994136;28;20034;-90
2023/12/06 08:43:48;;;;;;;14.30;11.43;;;5.40;99.90;;;;;;4978070;28;20418;-90
2023/12/06 08:46:15;;;;;;;16.65;12.10;;;5.50;99.90;;;;;;4995072;28;20022;-90
2023/12/06 08:48:41;;;;;;;16.88;11.82;;;5.50;99.90;;;;;;4978031;28;20027;-87
2023/12/06 08:51:08;;;;;;;16.80;11.38;;;5.50;99.90;;;;;;4977936;28;20033;-89
2023/12/06 08:53:34;;;;;;;17.10;11.98;;;5.50;99.90;;;;;;4977812;28;20030;-89
2023/12/06 08:56:00;;;;;;;15.57;11.52;;;5.50;99.90;;;;;;4982475;28;20092;-92
2023/12/06 08:58:27;;;;;;;18.67;12.23;;;5.50;99.90;;;;;;4994820;28;20031;-94
2023/12/06 09:00:53;;;;;;;14.32;11.07;;;5.60;99.90;;;;;;4996038;28;20037;-86
2023/12/06 09:03:23;;;;;;;17.27;10.77;;;5.60;99.90;;;;;;4993365;28;20061;-86
2023/12/06 09:05:49;;;;;;;16.95;11.90;;;5.60;99.90;;;;;;4994359;28;20074;-87
2023/12/06 09:08:15;;;;;;;18.40;11.15;;;5.60;99.90;;;;;;4994018;28;20434;-87
2023/12/06 09:10:40;;;;;;;15.77;11.38;;;5.70;99.90;;;;;;4993610;28;20026;-86
2023/12/06 09:13:08;;;;;;;15.85;11.13;;;5.70;99.90;;;;;;4993309;28;20054;-87
2023/12/06 09:15:34;;;;;;;14.80;11.23;;;5.70;99.90;;;;;;4994530;28;20026;-88
2023/12/06 09:18:00;;;;;;;15.57;11.10;;;5.70;99.90;;;;;;4993082;28;20482;-88
2023/12/06 09:20:25;;;;;;;14.30;10.68;;;5.70;99.90;;;;;;4977349;28;20121;-87
2023/12/06 09:22:51;;;;;;;15.60;9.63;;;5.70;99.90;;;;;;4978892;28;20035;-86
2023/12/06 09:25:20;;;;;;;15.57;10.50;;;5.70;99.90;;;;;;4964838;28;20023;-85
2023/12/06 09:27:45;;;;;;;13.40;9.75;;;5.80;99.90;;;;;;4998431;28;20121;-87
2023/12/06 09:30:11;;;;;;;12.52;9.52;;;5.70;99.90;;;;;;4997248;28;20471;-88
2023/12/06 09:32:37;;;;;;;12.43;9.52;;;5.70;99.90;;;;;;4981171;28;20471;-88
2023/12/06 09:35:03;;;;;;;12.60;9.30;;;5.80;99.90;;;;;;4966261;28;20380;-86
2023/12/06 09:37:28;;;;;;;16.92;10.57;;;5.80;99.90;;;;;;5013464;28;20037;-87
2023/12/06 09:39:54;;;;;;;15.38;11.20;;;5.80;99.90;;;;;;5013690;28;20082;-86
2023/12/06 09:42:23;;;;;;;14.20;10.75;;;5.80;99.90;;;;;;5003212;28;20026;-83
2023/12/06 09:44:51;;;;;;;15.57;10.95;;;5.70;99.90;;;;;;5020762;28;20026;-86
2023/12/06 09:47:21;;;;;;;14.57;11.05;;;5.80;99.90;;;;;;5020145;28;20022;-83
2023/12/06 09:49:49;;;;;;;15.07;10.93;;;5.80;99.90;;;;;;5000160;28;20034;-83
2023/12/06 09:52:21;;;;;;;14.50;10.57;;;5.90;99.90;;;;;;4997406;28;20534;-89
2023/12/06 09:54:51;;;;;;;14.80;10.95;;;5.90;99.90;;;;;;4996909;28;20113;-87
2023/12/06 09:57:17;;;;;;;15.27;10.90;;;6.00;99.90;;;;;;4996783;28;20064;-88
2023/12/06 09:59:43;;;;;;;17.05;11.57;;;6.00;99.90;;;;;;4996604;28;20034;-88
2023/12/06 10:02:08;;;;;;;13.32;11.55;;;5.90;99.90;;;;;;4980011;28;20037;-86
2023/12/06 10:04:37;;;;;;;15.98;11.93;;;5.90;99.90;;;;;;4996212;28;20485;-88
2023/12/06 10:07:03;;;;;;;16.95;11.15;;;5.90;99.90;;;;;;4996465;28;20031;-87
2023/12/06 10:09:29;;;;;;;14.77;11.38;;;5.90;99.90;;;;;;4996177;28;20048;-89
2023/12/06 10:12:10;;;;;;;18.30;12.60;;;5.90;99.90;;;;;;4996843;28;20035;-92
2023/12/06 10:14:36;;;;;;;15.20;11.75;;;5.90;99.90;;;;;;4980333;28;20034;-88
2023/12/06 10:17:08;;;;;;;15.95;11.50;;;5.90;99.90;;;;;;4980619;28;20037;-88
2023/12/06 10:19:34;;;;;;;15.73;11.80;;;5.90;99.90;;;;;;4997323;28;20105;-89
2023/12/06 10:22:00;;;;;;;14.13;10.93;;;6.00;99.90;;;;;;4996280;28;20062;-88
2023/12/06 10:24:27;;;;;;;17.33;12.05;;;6.00;99.90;;;;;;4996013;28;20030;-86
2023/12/06 10:27:03;;;;;;;13.52;10.48;;;6.00;99.90;;;;;;4997381;28;20030;-88
2023/12/06 10:29:30;;;;;;;13.85;10.40;;;6.00;99.90;;;;;;4996263;28;20415;-88
2023/12/06 10:31:57;;;;;;;14.25;10.68;;;6.00;99.90;;;;;;4979780;28;20064;-88
2023/12/06 10:34:24;;;;;;;15.75;11.00;;;6.10;99.90;;;;;;4995297;28;20034;-87
2023/12/06 10:36:50;;;;;;;15.77;10.98;;;6.10;99.90;;;;;;4996114;28;20034;-86
2023/12/06 10:39:20;;;;;;;14.32;10.85;;;6.10;99.90;;;;;;4997069;28;20053;-89
2023/12/06 10:41:48;;;;;;;15.57;11.27;;;6.10;99.90;;;;;;4996928;28;20034;-87
2023/12/06 10:44:15;;;;;;;19.10;11.77;;;6.20;99.90;;;;;;4995619;28;20037;-87
2023/12/06 10:46:43;;;;;;;16.27;10.65;;;6.20;99.90;;;;;;4995781;28;20056;-87
2023/12/06 10:49:10;;;;;;;18.77;11.38;;;6.20;99.90;;;;;;4997116;28;20041;-87
2023/12/06 10:51:37;;;;;;;19.92;13.93;;;6.20;99.90;;;;;;4996209;28;20026;-88
2023/12/06 10:54:04;;;;;;;20.65;13.52;;;6.30;99.90;;;;;;4996052;28;20023;-88
2023/12/06 10:56:32;;;;;;;18.55;13.68;;;6.30;99.90;;;;;;4980408;28;20141;-88
2023/12/06 10:59:03;;;;;;;18.55;11.90;;;6.30;99.90;;;;;;4996099;28;20503;-87
2023/12/06 11:01:32;;;;;;;15.35;11.02;;;6.40;99.90;;;;;;4996739;28;20026;-88
2023/12/06 11:03:59;;;;;;;13.73;10.40;;;6.40;99.90;;;;;;5011099;28;20053;-87
2023/12/06 11:07:09;;;;;;;14.57;10.10;;;6.40;99.90;;;;;;5003371;28;20011;-89
2023/12/06 11:09:46;;;;;;;12.95;9.25;;;6.40;99.90;;;;;;5017139;28;20072;-85
2023/12/06 11:12:41;;;;;;;13.10;9.38;;;6.50;99.90;;;;;;5007013;28;20042;-87
2023/12/06 11:15:40;;;;;;;10.85;8.40;;;6.50;99.90;;;;;;4995014;28;20030;-87
2023/12/06 11:18:13;;;;;;;12.20;8.63;;;6.50;99.90;;;;;;4995150;28;20034;-87
2023/12/06 11:20:39;;;;;;;13.23;9.38;;;6.50;99.90;;;;;;4994766;28;20034;-87
2023/12/06 11:23:06;;;;;;;13.40;8.85;;;6.60;99.90;;;;;;4995112;28;20053;-87
2023/12/06 11:25:31;;;;;;;10.52;9.13;;;6.60;99.90;;;;;;4978742;28;20027;-87
2023/12/06 11:27:58;;;;;;;13.25;9.02;;;6.60;99.90;;;;;;4978376;28;20525;-86
2023/12/06 11:30:24;;;;;;;11.35;8.43;;;6.60;99.90;;;;;;4978178;28;20026;-87
2023/12/06 11:32:57;;;;;;;10.20;8.10;;;6.60;99.90;;;;;;4978221;28;20154;-87
2023/12/06 11:35:24;;;;;;;12.85;9.00;;;6.60;99.90;;;;;;4978412;28;20022;-87
2023/12/06 11:37:54;;;;;;;12.13;9.13;;;6.60;99.90;;;;;;4994463;28;20034;-89
2023/12/06 11:40:25;;;;;;;12.63;8.65;;;6.60;99.90;;;;;;4994410;28;20023;-87
2023/12/06 11:43:03;;;;;;;10.70;8.75;;;6.60;99.90;;;;;;4995321;28;20041;-88
2023/12/06 11:45:37;;;;;;;11.18;9.10;;;6.60;99.90;;;;;;4978018;28;20542;-89
2023/12/06 11:48:05;;;;;;;11.45;8.85;;;6.50;99.90;;;;;;4994549;28;20080;-87
2023/12/06 11:50:41;;;;;;;10.50;7.78;;;6.50;99.90;;;;;;4978780;28;20113;-88
2023/12/06 11:53:07;;;;;;;11.95;8.20;;;6.50;99.90;;;;;;4994426;28;20022;-88
2023/12/06 11:55:35;;;;;;;10.05;7.65;;;6.60;99.90;;;;;;4994429;28;20037;-82
2023/12/06 11:58:09;;;;;;;10.43;8.00;;;6.60;99.90;;;;;;4994044;28;20030;-87
2023/12/06 12:00:38;;;;;;;13.15;9.38;;;6.60;99.90;;;;;;4978150;28;20030;-86
2023/12/06 12:03:05;;;;;;;11.38;8.45;;;6.60;99.90;;;;;;4995374;28;20025;-87
2023/12/06 12:05:33;;;;;;;11.00;8.75;;;6.60;99.90;;;;;;4995332;28;20022;-88
2023/12/06 12:08:01;;;;;;;13.13;9.27;;;6.60;99.90;;;;;;4995458;28;20026;-87
2023/12/06 12:10:28;;;;;;;13.07;8.90;;;6.70;99.90;;;;;;4993706;28;20046;-86
2023/12/06 12:12:54;;;;;;;10.93;8.70;;;6.70;99.90;;;;;;4995294;28;20014;-87
2023/12/06 12:15:20;;;;;;;14.20;10.02;;;6.70;99.90;;;;;;4994448;28;20109;-88
2023/12/06 12:17:46;;;;;;;13.93;9.82;;;6.70;99.90;;;;;;4993852;28;20030;-87
2023/12/06 12:20:13;;;;;;;18.80;10.55;;;6.80;99.90;;;;;;4994461;28;20486;-87
2023/12/06 12:22:44;;;;;;;13.63;9.43;;;6.80;99.90;;;;;;4993988;28;20027;-87
2023/12/06 12:25:10;;;;;;;15.38;10.07;;;6.80;99.90;;;;;;4994994;28;20526;-87
2023/12/06 12:27:36;;;;;;;13.43;9.88;;;6.80;99.90;;;;;;5003661;28;20041;-83
2023/12/06 12:30:03;;;;;;;14.48;10.10;;;6.80;99.90;;;;;;5000127;28;20027;-87
2023/12/06 12:32:32;;;;;;;15.10;10.60;;;6.90;99.90;;;;;;5015539;28;20030;-88
2023/12/06 12:34:59;;;;;;;13.25;9.88;;;6.90;99.90;;;;;;5008565;28;20034;-89